createdAt,value
2022-12-31T00:00:59.635Z,23.33
2022-12-31T00:03:26.990Z,23.70
2022-12-31T00:05:56.609Z,24.76
2022-12-31T00:08:23.830Z,24.80
2022-12-31T00:10:51.062Z,24.39
2022-12-31T00:13:18.481Z,23.83
2022-12-31T00:15:45.727Z,25.15
2022-12-31T00:18:13.031Z,23.92
2022-12-31T00:20:41.139Z,23.88
2022-12-31T00:23:09.177Z,22.96
2022-12-31T00:25:36.742Z,23.72
2022-12-31T00:28:04.652Z,23.72
2022-12-31T00:30:32.053Z,24.34
2022-12-31T00:32:59.434Z,23.93
2022-12-31T00:35:27.085Z,23.79
2022-12-31T00:37:54.445Z,24.49
2022-12-31T00:40:21.784Z,23.08
2022-12-31T00:42:49.132Z,23.91
2022-12-31T00:45:16.464Z,23.67
2022-12-31T00:47:43.710Z,23.15
2022-12-31T00:50:11.023Z,24.17
2022-12-31T00:52:38.325Z,23.66
2022-12-31T00:55:05.789Z,23.94
2022-12-31T00:57:33.094Z,23.42
2022-12-31T01:00:00.389Z,24.15
2022-12-31T01:02:27.937Z,24.02
2022-12-31T01:04:55.234Z,23.84
2022-12-31T01:07:22.766Z,23.39
2022-12-31T01:09:50.093Z,24.26
2022-12-31T01:12:17.433Z,24.09
2022-12-31T01:14:44.713Z,23.82
2022-12-31T01:17:13.484Z,24.29
2022-12-31T01:19:40.694Z,23.59
2022-12-31T01:22:08.228Z,24.05
2022-12-31T01:24:35.424Z,24.70
2022-12-31T01:27:02.652Z,24.16
2022-12-31T01:29:30.174Z,23.68
2022-12-31T01:31:57.495Z,23.71
2022-12-31T01:34:24.957Z,23.74
2022-12-31T01:36:52.189Z,24.30
2022-12-31T01:39:19.418Z,23.82
2022-12-31T01:41:47.626Z,23.24
2022-12-31T01:44:27.025Z,23.43
2022-12-31T01:47:00.446Z,24.08
2022-12-31T01:49:38.876Z,24.34
2022-12-31T01:52:06.245Z,24.17
2022-12-31T01:54:36.172Z,24.04
2022-12-31T01:57:05.410Z,23.98
2022-12-31T01:59:33.378Z,24.43
2022-12-31T02:02:01.349Z,24.04
2022-12-31T02:04:29.260Z,23.68
2022-12-31T02:06:59.259Z,23.19
2022-12-31T02:09:26.748Z,23.88
2022-12-31T02:11:53.963Z,23.48
2022-12-31T02:14:23.413Z,23.90
2022-12-31T02:17:03.313Z,24.80
2022-12-31T02:19:49.316Z,24.70
2022-12-31T02:22:19.918Z,23.37
2022-12-31T02:25:03.601Z,23.57
2022-12-31T02:27:38.790Z,24.00
2022-12-31T02:30:15.080Z,23.90
2022-12-31T02:32:45.201Z,23.74
2022-12-31T02:35:15.290Z,23.44
2022-12-31T02:37:44.795Z,23.78
2022-12-31T02:40:14.915Z,24.10
2022-12-31T02:42:42.423Z,23.93
2022-12-31T02:45:11.357Z,24.82
2022-12-31T02:47:46.541Z,24.34
2022-12-31T02:50:39.973Z,24.68
2022-12-31T02:53:16.133Z,24.69
2022-12-31T02:56:03.608Z,24.10
2022-12-31T02:59:00.317Z,24.65
2022-12-31T03:01:53.550Z,24.80
2022-12-31T03:04:34.199Z,23.92
2022-12-31T03:07:03.097Z,23.57
2022-12-31T03:09:30.462Z,24.56
2022-12-31T03:12:16.639Z,24.19
2022-12-31T03:14:44.105Z,23.94
2022-12-31T03:17:11.471Z,24.08
2022-12-31T03:19:57.667Z,24.30
2022-12-31T03:22:27.531Z,24.24
2022-12-31T03:25:14.713Z,24.80
2022-12-31T03:27:42.196Z,24.42
2022-12-31T03:30:09.735Z,23.62
2022-12-31T03:32:37.000Z,23.73
2022-12-31T03:35:04.666Z,24.14
2022-12-31T03:37:31.931Z,23.37
2022-12-31T03:39:59.160Z,23.46
2022-12-31T03:42:26.449Z,23.59
2022-12-31T03:44:53.678Z,24.00
2022-12-31T03:47:21.239Z,24.02
2022-12-31T03:49:48.477Z,23.58
2022-12-31T03:52:15.781Z,24.88
2022-12-31T03:54:43.062Z,24.62
2022-12-31T03:57:10.412Z,24.40
2022-12-31T03:59:37.743Z,23.54
2022-12-31T04:02:05.392Z,23.86
2022-12-31T04:04:32.721Z,24.48
2022-12-31T04:07:00.119Z,24.32
2022-12-31T04:09:27.524Z,24.42
2022-12-31T04:11:54.970Z,24.28
2022-12-31T04:14:22.181Z,24.58
2022-12-31T04:16:50.244Z,24.11
2022-12-31T04:19:17.614Z,24.77
2022-12-31T04:21:44.821Z,24.97
2022-12-31T04:24:13.043Z,24.39
2022-12-31T04:26:40.410Z,24.19
2022-12-31T04:29:07.604Z,24.13
2022-12-31T04:31:34.905Z,23.23
2022-12-31T04:34:02.299Z,24.01
2022-12-31T04:36:29.610Z,24.35
2022-12-31T04:38:56.886Z,24.11
2022-12-31T04:41:27.062Z,23.93
2022-12-31T04:43:55.558Z,23.36
2022-12-31T04:46:27.457Z,24.39
2022-12-31T04:48:55.252Z,24.57
2022-12-31T04:51:23.086Z,23.71
2022-12-31T04:53:50.790Z,23.70
2022-12-31T04:56:18.295Z,23.75
2022-12-31T04:58:45.768Z,24.32
2022-12-31T05:01:13.239Z,24.58
2022-12-31T05:03:40.737Z,24.68
2022-12-31T05:06:15.287Z,24.92
2022-12-31T05:08:43.898Z,24.71
2022-12-31T05:11:11.535Z,24.24
2022-12-31T05:13:39.555Z,24.77
2022-12-31T05:16:07.466Z,24.39
2022-12-31T05:18:35.148Z,24.37
2022-12-31T05:21:02.401Z,24.52
2022-12-31T05:23:29.652Z,24.67
2022-12-31T05:25:56.920Z,24.87
2022-12-31T05:28:24.219Z,25.04
2022-12-31T05:30:51.834Z,24.79
2022-12-31T05:33:19.389Z,24.03
2022-12-31T05:35:46.645Z,24.95
2022-12-31T05:38:13.951Z,24.88
2022-12-31T05:40:41.295Z,24.33
2022-12-31T05:43:08.658Z,24.93
2022-12-31T05:45:35.951Z,24.76
2022-12-31T05:48:03.224Z,24.63
2022-12-31T05:50:30.475Z,25.18
2022-12-31T05:53:01.076Z,25.00
2022-12-31T05:55:30.485Z,24.85
2022-12-31T05:58:03.835Z,25.26
2022-12-31T06:00:31.063Z,24.67
2022-12-31T06:02:58.419Z,25.00
2022-12-31T06:05:26.619Z,25.15
2022-12-31T06:07:54.055Z,24.35
2022-12-31T06:10:21.273Z,24.29
2022-12-31T06:12:48.508Z,24.73
2022-12-31T06:15:16.519Z,25.35
2022-12-31T06:17:43.737Z,25.26
2022-12-31T06:20:13.442Z,24.63
2022-12-31T06:22:40.877Z,25.01
2022-12-31T06:25:08.300Z,25.10
2022-12-31T06:27:35.556Z,25.48
2022-12-31T06:30:02.789Z,25.03
2022-12-31T06:32:31.396Z,24.98
2022-12-31T06:34:58.639Z,24.84
2022-12-31T06:37:25.926Z,24.77
2022-12-31T06:39:53.111Z,25.20
2022-12-31T06:42:20.412Z,25.18
2022-12-31T06:44:47.605Z,25.43
2022-12-31T06:47:14.893Z,25.66
2022-12-31T06:49:42.134Z,25.38
2022-12-31T06:52:09.370Z,25.70
2022-12-31T06:54:36.796Z,26.30
2022-12-31T06:57:04.199Z,25.79
2022-12-31T06:59:31.657Z,25.57
2022-12-31T07:01:58.976Z,24.55
2022-12-31T07:04:26.489Z,25.17
2022-12-31T07:06:56.564Z,25.14
2022-12-31T07:09:26.794Z,25.38
2022-12-31T07:12:12.619Z,26.15
2022-12-31T07:14:59.598Z,25.21
2022-12-31T07:17:32.611Z,25.68
2022-12-31T07:20:03.010Z,25.46
2022-12-31T07:22:30.405Z,25.07
2022-12-31T07:24:57.782Z,25.45
2022-12-31T07:27:25.014Z,25.38
2022-12-31T07:30:04.276Z,24.43
2022-12-31T07:32:50.163Z,25.64
2022-12-31T07:35:23.900Z,25.29
2022-12-31T07:38:02.821Z,25.60
2022-12-31T07:40:48.551Z,26.04
2022-12-31T07:43:27.057Z,26.13
2022-12-31T07:46:12.949Z,25.57
2022-12-31T07:48:40.458Z,25.65
2022-12-31T07:51:10.319Z,25.86
2022-12-31T07:53:39.990Z,24.43
2022-12-31T07:56:08.529Z,25.31
2022-12-31T07:58:40.613Z,25.45
2022-12-31T08:01:09.929Z,25.16
2022-12-31T08:03:37.267Z,26.04
2022-12-31T08:06:11.635Z,24.95
2022-12-31T08:09:05.053Z,24.28
2022-12-31T08:11:55.380Z,25.19
2022-12-31T08:14:22.732Z,24.62
2022-12-31T08:16:50.462Z,24.72
2022-12-31T08:19:25.858Z,24.79
2022-12-31T08:21:58.705Z,24.89
2022-12-31T08:24:26.604Z,25.47
2022-12-31T08:27:04.939Z,24.17
2022-12-31T08:29:50.732Z,24.14
2022-12-31T08:32:17.995Z,24.44
2022-12-31T08:35:14.243Z,24.67
2022-12-31T08:37:51.354Z,24.38
2022-12-31T08:40:37.418Z,24.90
2022-12-31T08:43:23.648Z,24.42
2022-12-31T08:45:54.137Z,24.38
2022-12-31T08:48:30.713Z,24.37
2022-12-31T08:50:58.088Z,24.34
2022-12-31T08:53:25.572Z,24.07
2022-12-31T08:55:57.032Z,23.75
2022-12-31T08:58:42.768Z,24.52
2022-12-31T09:01:11.820Z,24.60
2022-12-31T09:03:53.347Z,24.72
2022-12-31T09:06:27.218Z,25.43
2022-12-31T09:09:12.264Z,24.52
2022-12-31T09:11:51.827Z,24.28
2022-12-31T09:14:21.837Z,24.26
2022-12-31T09:16:55.104Z,23.95
2022-12-31T09:19:22.371Z,24.31
2022-12-31T09:21:49.891Z,24.14
2022-12-31T09:24:17.529Z,25.18
2022-12-31T09:27:03.555Z,24.53
2022-12-31T09:29:39.702Z,24.18
2022-12-31T09:32:07.014Z,23.91
2022-12-31T09:34:47.111Z,25.20
2022-12-31T09:37:16.825Z,24.89
2022-12-31T09:39:45.734Z,24.64
2022-12-31T09:42:25.425Z,24.14
2022-12-31T09:45:07.981Z,24.35
2022-12-31T09:47:35.337Z,25.35
2022-12-31T09:50:21.130Z,24.53
2022-12-31T09:53:06.954Z,25.40
2022-12-31T09:55:37.341Z,24.44
2022-12-31T09:58:13.533Z,25.51
2022-12-31T10:00:40.756Z,24.32
2022-12-31T10:03:25.562Z,24.99
2022-12-31T10:06:11.317Z,25.61
2022-12-31T10:08:41.341Z,25.74
2022-12-31T10:11:34.560Z,25.06
2022-12-31T10:14:08.274Z,25.50
2022-12-31T10:16:41.677Z,25.89
2022-12-31T10:19:27.578Z,25.56
2022-12-31T10:22:15.627Z,25.61
2022-12-31T10:25:01.487Z,24.91
2022-12-31T10:27:38.046Z,24.61
2022-12-31T10:30:24.272Z,24.67
2022-12-31T10:33:09.089Z,25.06
2022-12-31T10:35:50.647Z,24.53
2022-12-31T10:38:26.768Z,25.02
2022-12-31T10:41:19.104Z,24.33
2022-12-31T10:44:04.985Z,24.37
2022-12-31T10:46:38.173Z,25.07
2022-12-31T10:49:08.214Z,24.59
2022-12-31T10:51:47.487Z,25.13
2022-12-31T10:54:14.735Z,24.61
2022-12-31T10:57:01.234Z,24.41
2022-12-31T11:00:03.826Z,24.38
2022-12-31T11:02:40.319Z,25.16
2022-12-31T11:05:26.057Z,24.29
2022-12-31T11:08:05.335Z,24.34
2022-12-31T11:10:38.403Z,24.01
2022-12-31T11:13:08.422Z,23.94
2022-12-31T11:15:35.837Z,24.38
2022-12-31T11:18:06.102Z,24.73
2022-12-31T11:20:51.858Z,24.72
2022-12-31T11:23:21.838Z,24.71
2022-12-31T11:25:52.004Z,24.16
2022-12-31T11:28:27.271Z,24.32
2022-12-31T11:31:09.622Z,24.10
2022-12-31T11:34:04.159Z,24.36
2022-12-31T11:36:50.258Z,24.21
2022-12-31T11:39:30.835Z,24.47
2022-12-31T11:42:13.775Z,24.12
2022-12-31T11:44:44.915Z,24.46
2022-12-31T11:47:31.033Z,23.91
2022-12-31T11:50:24.499Z,24.23
2022-12-31T11:52:55.036Z,24.59
2022-12-31T11:55:40.865Z,24.75
2022-12-31T11:58:12.149Z,24.95
2022-12-31T12:00:44.181Z,24.69
2022-12-31T12:03:12.381Z,24.13
2022-12-31T12:05:40.390Z,23.96
2022-12-31T12:08:07.610Z,23.87
2022-12-31T12:10:52.769Z,23.75
2022-12-31T12:13:19.986Z,23.90
2022-12-31T12:15:51.833Z,24.30
2022-12-31T12:18:38.958Z,24.08
2022-12-31T12:21:17.674Z,24.46
2022-12-31T12:23:56.548Z,23.72
2022-12-31T12:26:28.579Z,23.67
2022-12-31T12:28:55.817Z,24.03
2022-12-31T12:31:24.159Z,24.83
2022-12-31T12:33:52.335Z,24.28
2022-12-31T12:36:20.805Z,24.09
2022-12-31T12:38:48.272Z,24.78
2022-12-31T12:41:20.074Z,23.66
2022-12-31T12:43:47.453Z,24.16
2022-12-31T12:46:31.001Z,23.81
2022-12-31T12:48:58.440Z,23.59
2022-12-31T12:51:34.892Z,23.83
2022-12-31T12:54:11.070Z,24.48
2022-12-31T12:56:56.943Z,24.50
2022-12-31T12:59:36.258Z,24.44
2022-12-31T13:02:26.621Z,24.06
2022-12-31T13:05:16.645Z,24.73
2022-12-31T13:07:43.852Z,24.40
2022-12-31T13:10:11.715Z,24.07
2022-12-31T13:15:59.900Z,24.67
2022-12-31T13:18:53.559Z,24.40
2022-12-31T13:21:32.876Z,23.87
2022-12-31T13:24:00.062Z,24.35
2022-12-31T13:26:39.425Z,24.23
2022-12-31T13:29:13.569Z,24.36
2022-12-31T13:31:42.364Z,23.79
2022-12-31T13:34:24.119Z,23.72
2022-12-31T13:36:53.284Z,24.03
2022-12-31T13:39:31.976Z,24.04
2022-12-31T13:42:02.679Z,24.43
2022-12-31T13:44:48.048Z,24.66
2022-12-31T13:47:17.960Z,23.91
2022-12-31T13:50:05.483Z,24.80
2022-12-31T13:53:00.923Z,24.29
2022-12-31T13:55:40.114Z,23.91
2022-12-31T13:58:16.483Z,24.24
2022-12-31T14:00:47.993Z,23.74
2022-12-31T14:03:15.250Z,24.16
2022-12-31T14:05:42.595Z,24.69
2022-12-31T14:08:09.998Z,24.53
2022-12-31T14:10:56.803Z,24.47
2022-12-31T14:13:39.429Z,24.40
2022-12-31T14:16:12.947Z,24.81
2022-12-31T14:18:53.452Z,24.95
2022-12-31T14:21:25.580Z,23.90
2022-12-31T14:23:59.526Z,23.98
2022-12-31T14:26:30.070Z,24.16
2022-12-31T14:28:57.303Z,24.47
2022-12-31T14:31:39.194Z,24.62
2022-12-31T14:34:15.405Z,24.44
2022-12-31T14:37:01.304Z,24.80
2022-12-31T14:39:34.779Z,24.36
2022-12-31T14:42:17.195Z,24.08
2022-12-31T14:44:53.454Z,24.14
2022-12-31T14:47:35.807Z,23.62
2022-12-31T14:50:17.445Z,24.39
2022-12-31T14:52:50.852Z,24.57
2022-12-31T14:55:18.355Z,24.68
2022-12-31T14:58:25.837Z,24.81
2022-12-31T15:00:40.568Z,24.57
2022-12-31T15:03:28.077Z,25.39
2022-12-31T15:06:04.542Z,24.80
2022-12-31T15:08:31.857Z,24.73
2022-12-31T15:10:59.095Z,23.82
2022-12-31T15:13:52.067Z,24.45
2022-12-31T15:16:31.381Z,24.34
2022-12-31T15:19:24.846Z,24.86
2022-12-31T15:22:01.216Z,24.48
2022-12-31T15:24:30.966Z,24.40
2022-12-31T15:27:02.582Z,24.31
2022-12-31T15:29:43.524Z,24.77
2022-12-31T15:32:19.111Z,25.01
2022-12-31T15:34:46.719Z,25.28
2022-12-31T15:37:30.797Z,24.82
2022-12-31T15:40:28.920Z,24.96
2022-12-31T15:43:02.939Z,24.40
2022-12-31T15:45:38.233Z,24.70
2022-12-31T15:48:10.441Z,23.97
2022-12-31T15:50:39.548Z,23.64
2022-12-31T15:53:07.333Z,23.65
2022-12-31T15:55:34.617Z,24.56
2022-12-31T15:58:05.114Z,24.00
2022-12-31T16:00:51.228Z,23.98
2022-12-31T16:03:23.530Z,23.72
2022-12-31T16:05:51.636Z,23.85
2022-12-31T16:08:20.739Z,23.85
2022-12-31T16:10:48.207Z,24.18
2022-12-31T16:13:20.464Z,23.55
2022-12-31T16:16:00.342Z,23.76
2022-12-31T16:18:36.495Z,23.86
2022-12-31T16:21:03.977Z,23.63
2022-12-31T16:23:31.222Z,24.23
2022-12-31T16:26:00.527Z,23.61
2022-12-31T16:28:31.863Z,23.88
2022-12-31T16:31:03.495Z,23.53
2022-12-31T16:33:31.329Z,23.35
2022-12-31T16:35:59.885Z,23.70
2022-12-31T16:38:31.968Z,23.63
2022-12-31T16:41:02.040Z,23.15
2022-12-31T16:43:36.434Z,23.37
2022-12-31T16:46:15.977Z,23.56
2022-12-31T16:48:51.973Z,23.31
2022-12-31T16:51:21.253Z,23.52
2022-12-31T16:53:49.196Z,22.56
2022-12-31T16:56:25.198Z,23.09
2022-12-31T16:58:56.261Z,23.00
2022-12-31T17:01:25.752Z,23.26
2022-12-31T17:03:58.251Z,23.08
2022-12-31T17:06:27.242Z,23.14
2022-12-31T17:09:00.818Z,23.06
2022-12-31T17:11:33.143Z,23.96
2022-12-31T17:14:09.517Z,23.47
2022-12-31T17:16:38.507Z,23.43
2022-12-31T17:19:05.967Z,23.34
2022-12-31T17:21:33.557Z,23.36
2022-12-31T17:24:03.282Z,23.46
2022-12-31T17:26:32.617Z,23.75
2022-12-31T17:29:00.735Z,24.41
2022-12-31T17:31:28.016Z,23.64
2022-12-31T17:34:04.726Z,22.51
2022-12-31T17:36:32.090Z,22.85
2022-12-31T17:39:18.643Z,23.39
2022-12-31T17:41:46.570Z,23.38
2022-12-31T17:44:18.388Z,23.17
2022-12-31T17:46:46.142Z,22.87
2022-12-31T17:49:16.527Z,23.02
2022-12-31T17:51:47.583Z,22.88
2022-12-31T17:54:16.190Z,22.37
2022-12-31T17:56:43.961Z,23.12
2022-12-31T17:59:18.763Z,22.74
2022-12-31T18:01:46.342Z,22.73
2022-12-31T18:04:14.550Z,23.16
2022-12-31T18:06:42.001Z,23.00
2022-12-31T18:09:09.737Z,22.98
2022-12-31T18:11:38.026Z,22.64
2022-12-31T18:14:05.694Z,22.36
2022-12-31T18:16:33.039Z,22.41
2022-12-31T18:19:01.044Z,22.32
2022-12-31T18:21:32.766Z,22.18
2022-12-31T18:26:27.684Z,22.06
2022-12-31T18:28:55.079Z,22.42
2022-12-31T18:31:24.194Z,21.96
2022-12-31T18:33:52.528Z,22.31
2022-12-31T18:36:20.570Z,22.36
2022-12-31T18:38:47.964Z,22.73
2022-12-31T18:41:19.551Z,22.41
2022-12-31T18:43:47.258Z,21.77
2022-12-31T18:46:15.937Z,21.98
2022-12-31T18:48:44.386Z,21.21
2022-12-31T18:51:19.809Z,21.33
2022-12-31T18:53:47.255Z,21.29
2022-12-31T18:56:19.031Z,21.70
2022-12-31T18:58:46.778Z,20.99
2022-12-31T19:01:37.453Z,21.76
2022-12-31T19:04:11.539Z,21.61
2022-12-31T19:06:38.816Z,21.84
2022-12-31T19:09:13.229Z,22.17
2022-12-31T19:11:53.693Z,21.61
2022-12-31T19:14:24.136Z,21.84
2022-12-31T19:16:52.463Z,21.75
2022-12-31T19:19:19.832Z,21.27
2022-12-31T19:21:47.512Z,21.31
2022-12-31T19:24:27.509Z,21.49
2022-12-31T19:26:54.851Z,21.60
2022-12-31T19:29:23.754Z,21.39
2022-12-31T19:31:51.077Z,22.02
2022-12-31T19:34:18.401Z,21.91
2022-12-31T19:36:46.191Z,22.02
2022-12-31T19:39:15.321Z,21.93
2022-12-31T19:41:43.513Z,22.21
2022-12-31T19:44:17.638Z,22.08
2022-12-31T19:46:45.488Z,21.98
2022-12-31T19:49:13.893Z,21.95
2022-12-31T19:51:41.428Z,21.70
2022-12-31T19:54:09.066Z,22.23
2022-12-31T19:56:36.583Z,22.35
2022-12-31T19:59:05.768Z,22.24
2022-12-31T20:01:33.481Z,21.69
2022-12-31T20:04:00.957Z,22.12
2022-12-31T20:06:28.416Z,21.76
2022-12-31T20:08:55.930Z,21.60
2022-12-31T20:11:23.958Z,21.82
2022-12-31T20:13:52.693Z,22.13
2022-12-31T20:16:21.635Z,22.31
2022-12-31T20:18:50.858Z,22.07
2022-12-31T20:21:22.464Z,22.00
2022-12-31T20:23:50.569Z,22.01
2022-12-31T20:26:18.251Z,22.42
2022-12-31T20:28:45.960Z,22.49
2022-12-31T20:31:17.433Z,22.34
2022-12-31T20:33:44.911Z,22.52
2022-12-31T20:36:14.070Z,22.52
2022-12-31T20:38:41.547Z,22.55
2022-12-31T20:41:13.165Z,22.91
2022-12-31T20:43:40.565Z,23.07
2022-12-31T20:46:16.285Z,22.97
2022-12-31T20:48:44.391Z,23.23
2022-12-31T20:51:12.572Z,23.64
2022-12-31T20:53:39.915Z,23.19
2022-12-31T20:56:07.978Z,23.97
2022-12-31T20:58:35.602Z,23.05
2022-12-31T21:01:05.622Z,22.98
2022-12-31T21:04:04.223Z,23.41
2022-12-31T21:06:25.453Z,23.56
2022-12-31T21:08:54.353Z,23.64
2022-12-31T21:11:40.108Z,23.62
2022-12-31T21:14:07.394Z,23.86
2022-12-31T21:16:35.005Z,23.35
2022-12-31T21:19:02.514Z,23.92
2022-12-31T21:21:29.779Z,23.58
2022-12-31T21:23:57.279Z,23.33
2022-12-31T21:26:24.993Z,23.04
2022-12-31T21:28:52.849Z,23.05
2022-12-31T21:31:20.282Z,23.18
2022-12-31T21:33:47.571Z,23.38
2022-12-31T21:36:15.614Z,23.51
2022-12-31T21:38:43.421Z,23.36
2022-12-31T21:41:35.068Z,23.39
2022-12-31T21:44:03.284Z,23.72
2022-12-31T21:46:30.637Z,23.76
2022-12-31T21:48:59.086Z,23.53
2022-12-31T21:51:26.551Z,23.25
2022-12-31T21:53:54.112Z,23.22
2022-12-31T21:56:21.743Z,23.49
2022-12-31T21:59:13.091Z,23.90
2022-12-31T22:01:59.327Z,23.88
2022-12-31T22:07:14.055Z,23.54
2022-12-31T22:09:41.235Z,23.77
2022-12-31T22:12:08.550Z,24.68
2022-12-31T22:14:35.788Z,24.44
2022-12-31T22:17:03.387Z,24.38
2022-12-31T22:19:30.555Z,24.49
2022-12-31T22:21:57.835Z,24.67
2022-12-31T22:24:25.052Z,24.82
2022-12-31T22:26:55.714Z,24.39
2022-12-31T22:29:23.693Z,23.87
2022-12-31T22:31:50.917Z,23.80
2022-12-31T22:34:18.574Z,23.83
2022-12-31T22:36:45.771Z,23.76
2022-12-31T22:39:44.826Z,23.82
2022-12-31T22:42:03.639Z,24.24
2022-12-31T22:44:30.895Z,23.91
2022-12-31T22:46:58.157Z,23.71
2022-12-31T22:49:25.869Z,23.63
2022-12-31T22:51:57.163Z,23.91
2022-12-31T22:54:27.100Z,23.79
2022-12-31T22:56:54.611Z,23.31
2022-12-31T22:59:21.979Z,23.32
2022-12-31T23:01:49.214Z,23.55
2022-12-31T23:04:16.652Z,23.52
2022-12-31T23:06:43.912Z,23.91
2022-12-31T23:09:30.943Z,23.33
2022-12-31T23:11:58.320Z,22.98
2022-12-31T23:14:43.900Z,23.82
2022-12-31T23:17:34.387Z,23.34
2022-12-31T23:20:20.670Z,23.50
2022-12-31T23:23:05.883Z,23.42
2022-12-31T23:25:33.841Z,23.85
2022-12-31T23:28:01.381Z,23.14
2022-12-31T23:30:28.817Z,23.11
2022-12-31T23:32:56.065Z,22.89
2022-12-31T23:35:23.371Z,23.26
2022-12-31T23:37:50.656Z,22.48
2022-12-31T23:40:21.636Z,23.25
2022-12-31T23:42:52.382Z,22.89
2022-12-31T23:45:19.697Z,22.86
2022-12-31T23:47:46.928Z,22.98
2022-12-31T23:50:14.205Z,22.92
2022-12-31T23:52:41.416Z,22.86
2022-12-31T23:55:08.954Z,22.85
2022-12-31T23:57:36.207Z,22.62
